Time;durP1;ratioP1;P1;durP2;ratioP2;P2;SDS_P1;SDS_P2;PMS_P1;PMS_P2;Temp;Humidity;BMP_temperature;BMP_pressure;BME280_temperature;BME280_humidity;BME280_pressure;Samples;Min_cycle;Max_cycle;Signal;HPM_P1;HPM_P2
2023/01/20 08:27:43;;;;;;;14.18;6.22;;;;;;;2.17;65.61;96366.56;2098189;27;20573;-56
2023/01/20 08:32:43;;;;;;;9.25;5.18;;;;;;;3.84;59.04;96364.22;2080128;27;21037;-56
2023/01/20 08:37:23;;;;;;;23.67;11.68;;;;;;;2.28;62.14;96377.53;2083292;28;20561;-56
2023/01/20 08:38:24;;;;;;;21.15;11.80;;;;;;;2.73;61.43;96389.66;2083873;28;20227;-56
2023/01/20 08:41:36;;;;;;;13.50;8.60;;;;;;;3.46;60.72;96388.31;2102249;27;21063;-57
2023/01/20 08:42:38;;;;;;;12.52;8.20;;;;;;;4.04;58.53;96392.22;2092150;28;20301;-56
2023/01/20 08:45:20;;;;;;;17.95;8.70;;;;;;;4.11;58.12;96390.31;2085358;27;20552;-59
2023/01/20 08:46:22;;;;;;;14.45;9.02;;;;;;;4.12;57.42;96393.78;2081346;28;20240;-59
2023/01/20 08:48:52;;;;;;;17.00;10.00;;;;;;;4.05;57.29;96398.22;2081470;28;20556;-58
2023/01/20 08:51:08;;;;;;;15.85;9.02;;;;;;;4.52;56.33;96397.97;2085929;28;20552;-57
2023/01/20 08:53:15;;;;;;;17.13;9.95;;;;;;;4.71;55.30;96393.19;2087277;27;20548;-57
2023/01/20 08:54:16;;;;;;;18.05;10.20;;;;;;;4.43;55.33;96404.22;2069796;28;20222;-57
2023/01/20 08:55:18;;;;;;;18.70;9.63;;;;;;;4.56;55.58;96405.63;2066075;28;20224;-57
2023/01/20 08:56:20;;;;;;;16.67;9.63;;;;;;;4.40;55.79;96407.72;2065506;28;20194;-59
2023/01/20 08:57:24;;;;;;;19.65;9.50;;;;;;;4.25;56.12;96408.97;2066595;28;20194;-59
2023/01/20 08:58:26;;;;;;;15.27;8.98;;;;;;;4.75;55.78;96402.59;2062521;28;20578;-59
2023/01/20 08:59:28;;;;;;;15.75;8.57;;;;;;;5.01;55.43;96406.25;2062641;28;20223;-59
2023/01/20 09:00:29;;;;;;;14.65;8.40;;;;;;;5.46;54.34;96408.47;2066787;28;20240;-59
2023/01/20 09:01:35;;;;;;;14.10;9.30;;;;;;;5.51;54.24;96413.50;2065831;28;20212;-60
2023/01/20 09:02:36;;;;;;;16.35;7.97;;;;;;;5.34;53.80;96414.81;2066601;28;20615;-59
2023/01/20 09:03:39;;;;;;;17.45;9.20;;;;;;;5.59;53.51;96415.88;2066840;28;20206;-59
2023/01/20 09:04:42;;;;;;;14.10;9.85;;;;;;;5.37;53.79;96401.81;2067107;28;20292;-60
2023/01/20 09:05:43;;;;;;;20.25;10.18;;;;;;;5.86;53.25;96396.94;2065438;28;20241;-60
2023/01/20 09:06:49;;;;;;;21.65;11.75;;;;;;;6.36;52.27;96405.81;2066300;28;20711;-59
2023/01/20 09:07:50;;;;;;;23.42;13.63;;;;;;;6.72;50.80;96404.69;2066619;28;20645;-60
2023/01/20 09:08:52;;;;;;;32.38;15.57;;;;;;;6.88;50.37;96398.06;2064672;28;20274;-60
2023/01/20 09:09:53;;;;;;;22.38;12.85;;;;;;;7.58;49.12;96413.84;2066110;28;20201;-59
2023/01/20 09:11:07;;;;;;;22.60;12.57;;;;;;;7.72;49.11;96413.34;2065050;28;20293;-60
2023/01/20 09:12:08;;;;;;;30.20;16.30;;;;;;;7.33;49.32;96412.13;2065191;28;20293;-60
2023/01/20 09:13:09;;;;;;;26.08;13.85;;;;;;;8.31;47.52;96418.00;2065074;28;20296;-60
2023/01/20 09:14:11;;;;;;;25.25;14.60;;;;;;;9.04;45.96;96407.31;2062072;28;20246;-60
2023/01/20 09:15:12;;;;;;;20.08;12.95;;;;;;;9.67;44.97;96411.53;2063426;28;20213;-60
2023/01/20 09:16:16;;;;;;;23.38;12.15;;;;;;;9.18;44.93;96411.94;2065095;28;20206;-60
2023/01/20 09:17:17;;;;;;;18.70;11.25;;;;;;;7.10;48.92;96415.53;2066297;28;20636;-60
2023/01/20 09:18:19;;;;;;;18.05;10.77;;;;;;;6.41;51.07;96418.66;2066445;28;20195;-60
2023/01/20 09:19:21;;;;;;;20.60;12.50;;;;;;;6.10;51.76;96417.03;2065868;28;20237;-60
2023/01/20 09:20:23;;;;;;;27.45;11.65;;;;;;;6.89;51.13;96419.72;2067526;28;20198;-60
2023/01/20 09:21:24;;;;;;;22.55;12.10;;;;;;;7.67;49.12;96403.97;2062287;28;20198;-61
2023/01/20 09:22:26;;;;;;;23.45;12.23;;;;;;;8.27;47.97;96415.59;2062982;28;20236;-61
2023/01/20 09:23:27;;;;;;;22.23;11.70;;;;;;;8.39;47.31;96417.69;2066596;28;20217;-61
2023/01/20 09:24:29;;;;;;;19.80;11.93;;;;;;;9.19;46.16;96417.97;2065624;28;20320;-61
2023/01/20 09:25:30;;;;;;;16.67;10.68;;;;;;;9.36;45.18;96425.06;2065687;28;20210;-61
2023/01/20 09:26:37;;;;;;;16.40;11.05;;;;;;;8.71;46.78;96423.44;2066963;28;20202;-61
2023/01/20 09:27:38;;;;;;;19.27;12.75;;;;;;;9.66;45.42;96416.81;2067738;28;20201;-61
2023/01/20 09:28:43;;;;;;;16.15;9.43;;;;;;;9.15;45.59;96423.34;2065893;28;20214;-61
2023/01/20 09:29:45;;;;;;;16.58;10.02;;;;;;;9.57;44.64;96421.53;2062442;28;20202;-62
2023/01/20 09:30:47;;;;;;;12.80;8.43;;;;;;;8.77;46.05;96423.19;2063209;28;20202;-62
2023/01/20 09:31:51;;;;;;;14.85;8.82;;;;;;;8.96;46.30;96418.06;2062365;28;20202;-62
2023/01/20 09:32:55;;;;;;;16.55;8.88;;;;;;;8.42;46.70;96428.00;2066357;28;20197;-62
2023/01/20 09:33:56;;;;;;;10.38;7.25;;;;;;;8.79;46.07;96423.94;2065058;28;20232;-62
2023/01/20 09:34:58;;;;;;;13.70;8.52;;;;;;;8.61;46.80;96428.16;2065423;28;20198;-62
2023/01/20 09:35:59;;;;;;;14.40;9.50;;;;;;;7.99;47.48;96416.66;2065245;28;20225;-62
2023/01/20 09:44:47;;;;;;;18.88;10.85;;;;;;;8.15;49.03;96435.97;2071997;28;20222;-63
2023/01/20 09:46:02;;;;;;;14.50;8.70;;;;;;;6.84;50.79;96438.03;2071340;28;20710;-62
2023/01/20 09:47:27;;;;;;;11.63;7.38;;;;;;;6.61;50.77;96441.38;2072140;28;20312;-63
2023/01/20 09:54:01;;;;;;;11.15;6.60;;;;;;;6.33;52.69;96445.69;2070532;28;20213;-63
2023/01/20 09:55:19;;;;;;;9.00;5.32;;;;;;;5.87;53.12;96449.63;2071966;28;20272;-63
2023/01/20 09:56:24;;;;;;;10.68;5.43;;;;;;;6.64;51.65;96447.31;2073871;28;20229;-63
2023/01/20 09:57:32;;;;;;;10.90;5.82;;;;;;;7.45;50.71;96448.09;2074223;28;20201;-63
2023/01/20 09:58:40;;;;;;;7.75;5.68;;;;;;;8.85;47.56;96429.81;2075336;28;20234;-64
2023/01/20 09:59:48;;;;;;;12.85;6.70;;;;;;;9.04;47.18;96455.94;2070269;28;20194;-62
2023/01/20 10:01:18;;;;;;;10.65;6.47;;;;;;;9.57;46.20;96447.63;2072281;28;20201;-61
2023/01/20 10:02:25;;;;;;;8.07;6.18;;;;;;;10.77;42.79;96450.88;2073797;28;20251;-61
2023/01/20 10:03:46;;;;;;;9.07;5.93;;;;;;;9.74;44.50;96446.03;2074830;28;20220;-61
2023/01/20 10:04:53;;;;;;;10.07;6.55;;;;;;;9.74;44.98;96449.47;2068819;28;20353;-61
2023/01/20 10:05:58;;;;;;;11.77;7.43;;;;;;;9.33;46.00;96462.53;2069783;28;20309;-61
2023/01/20 10:07:05;;;;;;;11.65;6.95;;;;;;;9.45;45.39;96455.97;2066452;28;20323;-60
2023/01/20 10:08:21;;;;;;;11.00;6.93;;;;;;;9.23;46.34;96443.84;2069695;28;20205;-61
2023/01/20 10:09:39;;;;;;;17.15;8.05;;;;;;;9.59;45.54;96457.97;2067526;28;20681;-61
2023/01/20 10:11:01;;;;;;;7.85;5.32;;;;;;;10.04;44.42;96459.41;2068454;28;20198;-61
2023/01/20 10:12:30;;;;;;;10.88;5.45;;;;;;;9.24;44.92;96453.38;2064870;28;20672;-61
2023/01/20 10:13:36;;;;;;;10.10;6.35;;;;;;;9.86;45.56;96457.66;2066940;28;20226;-61
2023/01/20 10:14:45;;;;;;;10.27;5.25;;;;;;;10.72;43.11;96455.47;2064272;28;20245;-61
2023/01/20 10:15:55;;;;;;;13.25;6.70;;;;;;;11.35;42.19;96454.09;2082541;28;20231;-61
2023/01/20 10:17:05;;;;;;;13.07;6.50;;;;;;;11.44;41.90;96464.13;2077830;28;20207;-62
2023/01/20 10:18:15;;;;;;;17.67;10.68;;;;;;;11.18;41.65;96458.41;2065729;28;20209;-61
2023/01/20 10:19:41;;;;;;;17.70;10.25;;;;;;;11.38;41.71;96465.25;2064176;28;20308;-61
2023/01/20 10:21:04;;;;;;;30.08;16.17;;;;;;;10.52;42.59;96459.84;2067777;28;20553;-61
2023/01/20 10:22:12;;;;;;;22.42;11.80;;;;;;;10.82;43.41;96461.06;2067842;28;20221;-61
2023/01/20 10:23:20;;;;;;;16.58;8.68;;;;;;;11.14;42.03;96463.88;2067182;28;20256;-61
2023/01/20 10:24:30;;;;;;;12.20;7.30;;;;;;;11.06;41.86;96459.88;2068147;28;20232;-64
2023/01/20 10:25:44;;;;;;;11.77;7.10;;;;;;;10.92;41.69;96457.94;2069445;28;20198;-64
2023/01/20 10:27:00;;;;;;;14.70;9.65;;;;;;;10.87;42.04;96464.28;2068412;28;20233;-64
2023/01/20 10:28:27;;;;;;;24.08;12.77;;;;;;;11.01;42.06;96466.25;2070202;28;20520;-65
2023/01/20 10:29:38;;;;;;;10.45;6.88;;;;;;;10.74;42.15;96458.81;2066182;28;20695;-64
2023/01/20 10:30:39;;;;;;;10.23;6.20;;;;;;;11.16;41.73;96430.66;2066282;28;20229;-64
2023/01/20 10:31:48;;;;;;;10.43;6.93;;;;;;;10.37;42.75;96468.41;2068993;28;20232;-64
2023/01/20 10:33:01;;;;;;;16.10;7.97;;;;;;;10.82;42.62;96467.16;2068941;28;20240;-64
2023/01/20 10:34:11;;;;;;;15.40;8.25;;;;;;;11.18;42.57;96461.03;2067428;28;20310;-65
2023/01/20 10:35:21;;;;;;;26.10;14.80;;;;;;;11.45;41.74;96473.63;2067515;28;20698;-65
2023/01/20 10:36:28;;;;;;;35.45;18.50;;;;;;;11.39;41.91;96434.75;2067247;28;20281;-65
2023/01/20 10:37:31;;;;;;;17.58;10.27;;;;;;;12.38;41.07;96467.03;2065990;28;20768;-64
2023/01/20 10:38:53;;;;;;;36.00;19.83;;;;;;;11.38;41.95;96467.03;2064633;28;20280;-63
2023/01/20 10:40:07;;;;;;;20.33;12.05;;;;;;;10.43;44.08;96466.34;2065290;28;20222;-64
2023/01/20 10:41:20;;;;;;;18.48;11.55;;;;;;;11.41;42.73;96465.13;2067563;28;20202;-64
2023/01/20 10:42:23;;;;;;;16.60;9.75;;;;;;;11.37;42.89;96452.28;2067481;28;20240;-65
2023/01/20 10:43:25;;;;;;;15.25;8.00;;;;;;;12.18;41.24;96457.66;2067174;28;20199;-64
2023/01/20 10:44:26;;;;;;;14.00;8.70;;;;;;;11.77;41.28;96455.44;2068633;28;20751;-64
2023/01/20 10:45:46;;;;;;;15.45;8.55;;;;;;;11.61;42.34;96463.22;2066811;28;20214;-64
2023/01/20 10:47:15;;;;;;;13.73;8.45;;;;;;;12.02;42.04;96460.22;2069962;28;20233;-64
2023/01/20 10:48:49;;;;;;;11.82;6.65;;;;;;;11.98;41.78;96457.88;2070514;28;20203;-64
2023/01/20 10:50:06;;;;;;;11.82;6.88;;;;;;;12.01;41.03;96462.94;2066303;28;20681;-64
2023/01/20 10:51:31;;;;;;;13.90;7.03;;;;;;;12.08;40.92;96465.13;2068130;28;20199;-64
2023/01/20 10:53:00;;;;;;;18.90;6.53;;;;;;;11.99;41.86;96464.81;2067829;28;20225;-64
2023/01/20 10:54:22;;;;;;;10.18;6.40;;;;;;;12.39;41.55;96455.63;2066582;28;20316;-64
2023/01/20 10:55:33;;;;;;;10.35;5.55;;;;;;;12.40;41.39;96459.97;2067586;28;20232;-64
2023/01/20 10:57:03;;;;;;;11.57;5.50;;;;;;;12.02;41.17;96462.00;2067787;28;20202;-64
2023/01/20 10:58:18;;;;;;;11.15;7.13;;;;;;;12.56;40.61;96465.16;2067704;28;20210;-64
2023/01/20 10:59:33;;;;;;;12.38;6.20;;;;;;;13.28;39.97;96461.16;2067546;28;20221;-64
2023/01/20 11:00:36;;;;;;;11.50;6.15;;;;;;;13.30;39.28;96468.00;2068267;28;20202;-64
2023/01/20 11:01:37;;;;;;;14.45;6.25;;;;;;;12.85;39.34;96469.69;2064606;28;20549;-64
2023/01/20 11:02:40;;;;;;;8.90;5.85;;;;;;;12.39;40.27;96449.53;2065738;28;20194;-64
2023/01/20 11:03:44;;;;;;;11.52;5.80;;;;;;;12.38;40.58;96471.44;2064085;28;20689;-64
2023/01/20 11:04:54;;;;;;;11.52;5.60;;;;;;;11.78;41.75;96464.97;2066670;28;20248;-64
2023/01/20 11:05:55;;;;;;;10.60;6.03;;;;;;;12.08;41.43;96464.31;2066728;28;20267;-64
2023/01/20 11:06:59;;;;;;;11.15;5.95;;;;;;;12.59;41.64;96466.78;2066272;28;20202;-64
2023/01/20 11:08:02;;;;;;;12.50;6.55;;;;;;;12.56;40.77;96472.19;2068190;28;20807;-64
2023/01/20 11:09:24;;;;;;;8.82;5.63;;;;;;;13.65;38.23;96467.72;2066845;28;20222;-65
2023/01/20 11:10:28;;;;;;;9.77;5.95;;;;;;;12.84;39.65;96463.63;2068434;28;20225;-64
2023/01/20 11:11:30;;;;;;;11.00;6.10;;;;;;;12.43;40.64;96460.69;2068479;28;20212;-64
2023/01/20 11:12:38;;;;;;;11.05;5.13;;;;;;;12.52;40.90;96468.03;2068210;28;20309;-64
2023/01/20 11:13:39;;;;;;;10.82;6.07;;;;;;;12.26;40.82;96470.31;2068939;28;20229;-63
2023/01/20 11:14:41;;;;;;;10.65;5.20;;;;;;;12.11;40.91;96465.91;2069760;28;20214;-64
2023/01/20 11:15:46;;;;;;;11.02;6.10;;;;;;;12.08;41.28;96466.91;2068161;28;20241;-64
2023/01/20 11:17:03;;;;;;;10.10;4.97;;;;;;;12.43;40.64;96469.41;2067179;28;20202;-63
2023/01/20 11:18:14;;;;;;;10.18;5.97;;;;;;;12.02;41.72;96469.88;2065534;28;20644;-64
2023/01/20 11:19:15;;;;;;;10.02;5.10;;;;;;;12.00;42.56;96469.94;2068697;28;20904;-63
2023/01/20 11:20:20;;;;;;;9.65;5.50;;;;;;;12.51;40.60;96469.81;2068790;28;20199;-64
2023/01/20 11:21:26;;;;;;;12.55;6.13;;;;;;;12.45;41.69;96466.69;2067381;28;20198;-64
2023/01/20 11:22:31;;;;;;;13.70;6.00;;;;;;;11.97;40.55;96467.47;2068352;28;20229;-64
2023/01/20 11:23:40;;;;;;;11.48;5.47;;;;;;;11.96;41.84;96473.66;2066888;28;20231;-64
2023/01/20 11:24:43;;;;;;;11.55;4.63;;;;;;;11.70;41.23;96467.16;2065484;28;20241;-64
2023/01/20 11:25:56;;;;;;;9.80;5.72;;;;;;;11.76;41.77;96464.22;2064231;28;20199;-64
2023/01/20 11:27:10;;;;;;;11.63;6.28;;;;;;;12.25;41.35;96452.91;2065659;28;20232;-63
2023/01/20 11:28:17;;;;;;;6.60;4.10;;;;;;;12.49;40.14;96471.66;2067782;28;20240;-64
2023/01/20 11:29:18;;;;;;;7.82;5.07;;;;;;;11.90;41.21;96474.78;2066580;28;20590;-64
2023/01/20 11:30:27;;;;;;;83.72;30.35;;;;;;;12.22;41.97;96471.41;2066079;28;20202;-64
2023/01/20 11:31:54;;;;;;;14.85;7.28;;;;;;;11.59;41.28;96471.16;2066312;28;20206;-64
2023/01/20 11:33:14;;;;;;;9.98;4.88;;;;;;;12.00;41.92;96469.09;2066561;28;20208;-63
2023/01/20 11:34:33;;;;;;;9.52;3.05;;;;;;;10.56;41.64;96469.25;2064260;28;20265;-63
2023/01/20 11:35:35;;;;;;;4.97;2.30;;;;;;;10.32;41.72;96468.59;2081312;28;20292;-63
2023/01/20 11:36:36;;;;;;;4.90;2.35;;;;;;;10.61;40.71;96469.88;2082605;28;20234;-63
2023/01/20 11:37:39;;;;;;;6.22;2.90;;;;;;;11.14;41.60;96474.34;2067383;28;20201;-63
2023/01/20 11:38:46;;;;;;;5.20;1.90;;;;;;;11.20;40.20;96474.00;2065268;28;20208;-63
2023/01/20 11:39:47;;;;;;;4.97;1.92;;;;;;;11.08;40.90;96473.72;2068684;28;20270;-63
2023/01/20 11:40:53;;;;;;;5.20;2.05;;;;;;;10.58;40.83;96470.00;2064206;28;20609;-63
2023/01/20 11:42:15;;;;;;;19.42;7.18;;;;;;;10.07;41.41;96479.34;2081523;28;20232;-63
2023/01/20 11:43:32;;;;;;;14.20;3.88;;;;;;;10.51;40.65;96463.38;2078645;28;20202;-63
2023/01/20 11:44:41;;;;;;;22.10;8.88;;;;;;;10.97;41.57;96477.78;2073466;28;20782;-63
2023/01/20 11:45:42;;;;;;;8.30;3.30;;;;;;;11.43;40.65;96463.25;2066862;28;20194;-64
2023/01/20 11:46:44;;;;;;;5.60;1.65;;;;;;;10.67;39.68;96476.56;2066628;28;20205;-63
2023/01/20 11:47:59;;;;;;;4.47;1.75;;;;;;;10.15;40.42;96490.25;2067158;28;20205;-63
2023/01/20 11:49:20;;;;;;;4.18;2.50;;;;;;;10.11;41.09;96481.72;2063434;28;20229;-61
2023/01/20 11:50:27;;;;;;;6.85;3.20;;;;;;;10.15;41.73;96485.03;2064597;28;20202;-62
2023/01/20 11:51:28;;;;;;;4.95;2.33;;;;;;;9.89;42.39;96478.38;2067882;28;20198;-62
2023/01/20 11:52:31;;;;;;;4.88;2.20;;;;;;;9.18;43.54;96484.03;2065298;28;20259;-61
2023/01/20 11:53:33;;;;;;;7.28;3.38;;;;;;;10.05;42.60;96483.75;2067084;28;20198;-61
2023/01/20 11:54:34;;;;;;;4.93;1.80;;;;;;;10.52;41.55;96474.69;2065768;28;20645;-61
2023/01/20 11:56:18;;;;;;;4.57;2.30;;;;;;;10.23;41.92;96482.06;2067944;28;20229;-61
2023/01/20 11:57:20;;;;;;;4.20;2.97;;;;;;;10.90;41.12;96478.06;2043182;29;20598;-61
2023/01/20 11:58:27;;;;;;;6.55;2.63;;;;;;;11.42;41.05;96476.41;2063213;28;20702;-61
2023/01/20 11:59:30;;;;;;;5.05;2.40;;;;;;;9.74;43.91;96482.53;2084519;28;20262;-61
2023/01/20 12:00:39;;;;;;;7.35;2.28;;;;;;;7.05;46.81;96477.16;2082948;28;20197;-61
2023/01/20 12:02:01;;;;;;;6.15;2.55;;;;;;;5.92;49.28;96480.59;2067708;28;20209;-61
2023/01/20 12:03:24;;;;;;;7.38;2.40;;;;;;;5.40;52.22;96470.78;2082934;28;20775;-61
2023/01/20 12:04:45;;;;;;;9.38;2.80;;;;;;;4.60;53.46;96483.13;2076198;28;20226;-61
2023/01/20 12:05:50;;;;;;;7.03;2.80;;;;;;;4.49;54.91;96480.81;2067374;28;20201;-61
2023/01/20 12:07:04;;;;;;;9.05;2.65;;;;;;;4.39;54.92;96472.41;2066186;28;20797;-61
2023/01/20 12:08:14;;;;;;;4.40;2.35;;;;;;;4.31;56.92;96474.34;2067042;28;20221;-61
2023/01/20 12:09:18;;;;;;;5.05;2.58;;;;;;;4.23;55.59;96487.44;2065865;28;20277;-61
2023/01/20 12:10:27;;;;;;;4.80;2.80;;;;;;;4.15;56.35;96473.81;2065592;28;20203;-61
2023/01/20 12:11:33;;;;;;;7.50;3.00;;;;;;;3.92;58.18;96482.91;2067583;28;20199;-60
2023/01/20 12:12:50;;;;;;;4.78;2.60;;;;;;;3.79;58.12;96476.31;2068322;28;20200;-61
2023/01/20 12:30:58;;;;;;;5.53;2.17;;;;;;;3.23;58.34;96500.59;2115909;27;20569;-59
2023/01/20 12:43:31;;;;;;;4.97;2.22;;;;;;;4.00;58.39;96506.00;2090655;28;20575;-62
2023/01/20 12:44:45;;;;;;;8.52;3.88;;;;;;;3.47;57.94;96494.13;2080596;28;20611;-62
2023/01/20 13:20:27;;;;;;;6.32;3.45;;;;;;;2.58;62.82;96499.09;2092602;27;21238;-59
2023/01/20 13:42:30;;;;;;;4.50;2.30;;;;;;;1.91;64.72;96525.75;2084079;28;20549;-59
2023/01/20 13:43:45;;;;;;;4.90;2.75;;;;;;;3.06;61.96;96518.94;2076515;28;20206;-59
2023/01/20 13:45:09;;;;;;;7.25;2.70;;;;;;;3.66;58.33;96486.03;2059044;28;20326;-59
2023/01/20 13:46:13;;;;;;;6.75;3.00;;;;;;;4.18;57.73;96520.28;2063863;28;20210;-61
2023/01/20 13:47:51;;;;;;;4.28;2.40;;;;;;;4.05;56.47;96522.25;2061921;28;20866;-62
2023/01/20 13:49:19;;;;;;;20.70;9.65;;;;;;;4.80;55.11;96518.88;2061498;28;20649;-68
2023/01/20 13:50:27;;;;;;;25.95;11.52;;;;;;;5.15;55.05;96520.63;2061646;28;20205;-68
2023/01/20 13:51:35;;;;;;;9.93;3.53;;;;;;;5.50;53.40;96520.63;2058859;28;20229;-68
2023/01/20 13:52:49;;;;;;;5.15;2.55;;;;;;;5.59;52.71;96520.38;2060034;28;20239;-68
2023/01/20 13:53:51;;;;;;;4.47;1.83;;;;;;;4.94;53.34;96518.56;2057008;28;20194;-68
2023/01/20 13:54:52;;;;;;;4.75;1.90;;;;;;;4.84;53.43;96513.63;2060976;28;20615;-68
2023/01/20 13:55:56;;;;;;;9.10;2.50;;;;;;;4.80;52.66;96522.34;2060243;28;20201;-68
2023/01/20 13:57:22;;;;;;;9.90;2.33;;;;;;;4.88;53.00;96520.41;2060516;28;20195;-68
2023/01/20 13:58:30;;;;;;;4.32;2.38;;;;;;;5.32;52.22;96520.19;2062589;28;20420;-68
2023/01/20 13:59:31;;;;;;;5.50;2.67;;;;;;;4.98;52.04;96513.28;2061180;28;20729;-68
2023/01/20 14:00:33;;;;;;;8.90;2.20;;;;;;;4.87;53.42;96515.28;2062326;28;20214;-68
2023/01/20 14:01:36;;;;;;;10.10;1.85;;;;;;;4.89;52.79;96519.53;2061012;28;20207;-68
2023/01/20 14:02:37;;;;;;;4.80;1.98;;;;;;;4.78;52.91;96529.28;2058451;28;20206;-68
2023/01/20 14:03:39;;;;;;;9.35;2.60;;;;;;;5.29;52.81;96525.44;2068153;28;20197;-68
2023/01/20 14:04:45;;;;;;;3.88;1.95;;;;;;;5.17;52.69;96525.78;2066266;28;20648;-68
2023/01/20 14:06:17;;;;;;;9.02;2.22;;;;;;;5.31;51.70;96530.59;2059702;28;20269;-68
2023/01/20 14:07:29;;;;;;;6.47;2.38;;;;;;;5.45;52.00;96525.91;2058973;28;20241;-68
2023/01/20 14:08:38;;;;;;;4.35;2.17;;;;;;;5.44;51.23;96507.81;2063929;28;20190;-68
2023/01/20 14:09:50;;;;;;;8.45;1.90;;;;;;;5.61;51.52;96525.50;2061914;28;20581;-68
2023/01/20 14:11:14;;;;;;;7.55;2.13;;;;;;;5.19;51.53;96531.75;2063568;28;20213;-68
2023/01/20 14:12:16;;;;;;;3.13;1.88;;;;;;;5.69;52.01;96528.75;2061303;28;20199;-68
2023/01/20 14:13:20;;;;;;;13.23;2.65;;;;;;;5.42;51.75;96532.91;2060729;28;20573;-68
2023/01/20 14:14:24;;;;;;;5.38;2.88;;;;;;;5.64;51.92;96534.03;2068077;28;20233;-68
2023/01/20 14:15:30;;;;;;;7.03;2.72;;;;;;;5.38;51.30;96532.13;2070793;28;20212;-68
2023/01/20 14:16:32;;;;;;;5.05;2.67;;;;;;;5.34;51.35;96539.13;2058862;28;20261;-68
2023/01/20 14:17:34;;;;;;;4.60;2.85;;;;;;;5.46;52.40;96535.38;2061326;28;20211;-68
2023/01/20 14:18:35;;;;;;;6.68;2.72;;;;;;;5.38;52.29;96522.63;2060415;28;20201;-67
2023/01/20 14:19:37;;;;;;;3.10;1.95;;;;;;;5.17;50.34;96534.38;2058161;28;20862;-68
2023/01/20 14:20:40;;;;;;;4.28;1.95;;;;;;;4.91;50.35;96540.19;2059753;28;20195;-68
2023/01/20 14:21:42;;;;;;;8.57;2.15;;;;;;;5.05;50.97;96537.25;2059319;28;20194;-68
2023/01/20 14:22:43;;;;;;;5.35;2.22;;;;;;;4.55;51.00;96522.91;2060780;28;20842;-68
2023/01/20 14:23:45;;;;;;;3.50;1.83;;;;;;;4.66;51.30;96545.94;2061916;28;20217;-68
2023/01/20 14:24:48;;;;;;;6.68;1.70;;;;;;;4.41;51.74;96536.13;2058976;28;20237;-67
2023/01/20 14:26:07;;;;;;;5.30;2.28;;;;;;;4.49;52.35;96535.97;2058839;28;20862;-68
2023/01/20 14:27:27;;;;;;;4.28;2.15;;;;;;;4.85;51.98;96541.19;2061752;28;20197;-67
2023/01/20 14:28:28;;;;;;;6.40;2.80;;;;;;;4.40;52.04;96539.59;2063269;28;20210;-67
2023/01/20 14:29:30;;;;;;;4.80;1.92;;;;;;;4.01;52.21;96541.28;2061218;28;20250;-67
2023/01/20 14:30:31;;;;;;;5.10;2.10;;;;;;;4.25;52.25;96545.09;2058364;28;20261;-68
2023/01/20 14:31:40;;;;;;;3.50;1.88;;;;;;;4.04;52.42;96543.84;2059840;28;20237;-67
2023/01/20 14:32:44;;;;;;;3.63;1.40;;;;;;;4.10;52.40;96543.69;2058176;28;20199;-67
2023/01/20 14:33:50;;;;;;;5.07;2.42;;;;;;;4.07;52.47;96539.44;2064354;28;20243;-67
2023/01/20 14:34:52;;;;;;;4.70;1.98;;;;;;;4.14;52.34;96547.94;2063989;28;20268;-68
2023/01/20 14:35:53;;;;;;;3.00;1.35;;;;;;;4.17;52.35;96549.59;2061845;28;20209;-67
2023/01/20 14:37:14;;;;;;;3.85;1.80;;;;;;;4.43;52.38;96540.44;2062610;28;20198;-68
2023/01/20 14:38:17;;;;;;;5.32;2.00;;;;;;;4.62;51.91;96557.25;2061821;28;20233;-67
2023/01/20 14:39:23;;;;;;;6.15;2.20;;;;;;;4.38;52.41;96527.59;2058877;28;20282;-67
2023/01/20 14:40:25;;;;;;;3.88;1.50;;;;;;;4.53;52.60;96554.84;2060415;28;20242;-66
2023/01/20 14:41:50;;;;;;;8.35;2.33;;;;;;;4.84;52.47;96555.00;2061876;28;20587;-66
2023/01/20 14:43:00;;;;;;;8.75;2.30;;;;;;;4.80;52.52;96547.34;2059669;28;20198;-66
2023/01/20 14:44:02;;;;;;;7.97;3.35;;;;;;;4.94;52.45;96534.09;2064783;28;20276;-66
2023/01/20 14:45:17;;;;;;;5.40;2.10;;;;;;;4.87;52.60;96554.94;2064640;28;20288;-66
2023/01/20 14:46:19;;;;;;;5.72;2.17;;;;;;;4.75;52.84;96555.22;2065011;28;20193;-66
2023/01/20 14:47:23;;;;;;;6.63;2.00;;;;;;;4.70;52.61;96563.09;2060563;28;20210;-66
2023/01/20 14:48:25;;;;;;;5.10;1.90;;;;;;;4.58;53.56;96561.63;2059123;28;20346;-66
2023/01/20 14:49:39;;;;;;;6.30;2.40;;;;;;;4.35;54.43;96558.69;2059040;28;20222;-68
2023/01/20 14:50:44;;;;;;;8.60;2.92;;;;;;;4.65;54.02;96564.09;2059462;28;20558;-66
2023/01/20 14:51:47;;;;;;;7.00;2.67;;;;;;;4.89;54.34;96560.09;2061228;28;20811;-66
2023/01/20 14:52:48;;;;;;;6.75;2.80;;;;;;;5.16;53.25;96555.13;2062573;28;20225;-66
2023/01/20 14:54:27;;;;;;;5.28;2.20;;;;;;;4.99;52.60;96568.47;2054840;28;20202;-66
2023/01/20 14:55:30;;;;;;;6.32;1.63;;;;;;;4.12;55.11;96560.03;2053692;28;20844;-66
2023/01/20 14:56:31;;;;;;;8.02;1.95;;;;;;;3.88;55.52;96545.88;2053972;28;20195;-66
2023/01/20 14:57:40;;;;;;;9.82;1.52;;;;;;;4.09;55.56;96558.34;2054090;28;20589;-66
2023/01/20 14:58:50;;;;;;;13.43;3.00;;;;;;;4.33;55.44;96542.34;2049526;28;20206;-69
2023/01/20 15:00:10;;;;;;;19.98;9.70;;;;;;;4.06;55.89;96563.59;2053048;28;20199;-68
2023/01/20 15:01:24;;;;;;;11.50;6.95;;;;;;;3.69;56.36;96561.69;2056719;28;20194;-69
2023/01/20 15:02:31;;;;;;;9.65;4.13;;;;;;;3.59;57.99;96563.63;2054515;28;20393;-66
2023/01/20 15:03:33;;;;;;;10.57;2.55;;;;;;;3.74;57.36;96572.78;2052909;28;20344;-66
2023/01/20 15:04:36;;;;;;;4.22;1.67;;;;;;;3.68;57.14;96567.78;2051849;28;20320;-66
2023/01/20 15:05:50;;;;;;;7.38;2.15;;;;;;;3.61;56.95;96561.00;2057233;28;20199;-66
2023/01/20 15:06:56;;;;;;;4.70;1.98;;;;;;;3.59;57.70;96575.66;2055525;28;20322;-66
2023/01/20 15:08:23;;;;;;;6.72;3.10;;;;;;;3.40;57.90;96569.97;2052009;28;20207;-66
